sensor_id;sensor_type;location;lat;lon;timestamp;P1;durP1;ratioP1;P2;durP2;ratioP2
45326;SDS011;31062;49.678;24.560;2023-07-20T00:01:01;8.07;;;4.20;;
45326;SDS011;31062;49.678;24.560;2023-07-20T00:03:46;4.97;;;4.18;;
45326;SDS011;31062;49.678;24.560;2023-07-20T00:06:40;8.32;;;5.07;;
45326;SDS011;31062;49.678;24.560;2023-07-20T00:09:26;10.20;;;6.40;;
45326;SDS011;31062;49.678;24.560;2023-07-20T00:12:12;12.45;;;6.25;;
45326;SDS011;31062;49.678;24.560;2023-07-20T00:14:57;6.88;;;6.03;;
45326;SDS011;31062;49.678;24.560;2023-07-20T00:17:43;9.73;;;6.68;;
45326;SDS011;31062;49.678;24.560;2023-07-20T00:20:30;7.72;;;6.50;;
45326;SDS011;31062;49.678;24.560;2023-07-20T00:23:15;8.35;;;5.70;;
45326;SDS011;31062;49.678;24.560;2023-07-20T00:26:01;8.05;;;6.55;;
45326;SDS011;31062;49.678;24.560;2023-07-20T00:28:48;18.40;;;6.75;;
45326;SDS011;31062;49.678;24.560;2023-07-20T00:31:37;10.43;;;5.47;;
45326;SDS011;31062;49.678;24.560;2023-07-20T00:34:23;11.20;;;6.30;;
45326;SDS011;31062;49.678;24.560;2023-07-20T00:37:11;13.35;;;6.25;;
45326;SDS011;31062;49.678;24.560;2023-07-20T00:39:57;11.00;;;6.05;;
45326;SDS011;31062;49.678;24.560;2023-07-20T00:42:43;9.65;;;5.70;;
45326;SDS011;31062;49.678;24.560;2023-07-20T00:45:29;11.75;;;6.63;;
45326;SDS011;31062;49.678;24.560;2023-07-20T00:48:15;12.70;;;6.60;;
45326;SDS011;31062;49.678;24.560;2023-07-20T00:51:01;12.23;;;6.93;;
45326;SDS011;31062;49.678;24.560;2023-07-20T00:53:47;20.60;;;6.95;;
45326;SDS011;31062;49.678;24.560;2023-07-20T00:56:33;10.98;;;6.32;;
45326;SDS011;31062;49.678;24.560;2023-07-20T00:59:19;7.32;;;5.57;;
45326;SDS011;31062;49.678;24.560;2023-07-20T01:02:05;16.25;;;7.15;;
45326;SDS011;31062;49.678;24.560;2023-07-20T01:04:50;14.60;;;6.47;;
45326;SDS011;31062;49.678;24.560;2023-07-20T01:07:38;10.68;;;6.40;;
45326;SDS011;31062;49.678;24.560;2023-07-20T01:10:33;8.48;;;5.07;;
45326;SDS011;31062;49.678;24.560;2023-07-20T01:13:24;6.85;;;5.45;;
45326;SDS011;31062;49.678;24.560;2023-07-20T01:16:11;5.47;;;4.72;;
45326;SDS011;31062;49.678;24.560;2023-07-20T01:18:57;4.80;;;4.20;;
45326;SDS011;31062;49.678;24.560;2023-07-20T01:33:31;6.30;;;5.18;;
45326;SDS011;31062;49.678;24.560;2023-07-20T01:36:19;11.32;;;6.05;;
45326;SDS011;31062;49.678;24.560;2023-07-20T01:39:07;12.07;;;6.97;;
45326;SDS011;31062;49.678;24.560;2023-07-20T01:41:53;15.25;;;6.05;;
45326;SDS011;31062;49.678;24.560;2023-07-20T01:44:39;18.83;;;6.15;;
45326;SDS011;31062;49.678;24.560;2023-07-20T01:47:24;19.00;;;5.60;;
45326;SDS011;31062;49.678;24.560;2023-07-20T01:50:10;12.05;;;5.78;;
45326;SDS011;31062;49.678;24.560;2023-07-20T01:52:56;11.48;;;6.88;;
45326;SDS011;31062;49.678;24.560;2023-07-20T01:55:43;12.80;;;7.53;;
45326;SDS011;31062;49.678;24.560;2023-07-20T01:58:30;17.23;;;7.78;;
45326;SDS011;31062;49.678;24.560;2023-07-20T02:01:15;10.95;;;7.30;;
45326;SDS011;31062;49.678;24.560;2023-07-20T02:04:00;9.45;;;7.18;;
45326;SDS011;31062;49.678;24.560;2023-07-20T02:06:46;10.02;;;6.95;;
45326;SDS011;31062;49.678;24.560;2023-07-20T02:09:31;11.25;;;6.35;;
45326;SDS011;31062;49.678;24.560;2023-07-20T02:12:17;9.43;;;6.40;;
45326;SDS011;31062;49.678;24.560;2023-07-20T02:15:02;12.57;;;7.22;;
45326;SDS011;31062;49.678;24.560;2023-07-20T02:17:48;12.88;;;7.28;;
45326;SDS011;31062;49.678;24.560;2023-07-20T02:20:34;14.40;;;8.27;;
45326;SDS011;31062;49.678;24.560;2023-07-20T02:23:20;15.48;;;9.55;;
45326;SDS011;31062;49.678;24.560;2023-07-20T02:26:05;9.70;;;8.40;;
45326;SDS011;31062;49.678;24.560;2023-07-20T02:28:51;17.10;;;7.35;;
45326;SDS011;31062;49.678;24.560;2023-07-20T02:31:39;13.50;;;7.72;;
45326;SDS011;31062;49.678;24.560;2023-07-20T02:34:25;9.00;;;7.00;;
45326;SDS011;31062;49.678;24.560;2023-07-20T02:37:11;7.80;;;5.22;;
45326;SDS011;31062;49.678;24.560;2023-07-20T02:39:58;4.72;;;4.10;;
45326;SDS011;31062;49.678;24.560;2023-07-20T02:42:45;8.20;;;4.95;;
45326;SDS011;31062;49.678;24.560;2023-07-20T02:45:30;6.22;;;4.30;;
45326;SDS011;31062;49.678;24.560;2023-07-20T02:48:16;6.13;;;4.70;;
45326;SDS011;31062;49.678;24.560;2023-07-20T02:51:01;6.00;;;4.00;;
45326;SDS011;31062;49.678;24.560;2023-07-20T02:53:47;9.07;;;4.13;;
45326;SDS011;31062;49.678;24.560;2023-07-20T02:56:33;5.22;;;3.78;;
45326;SDS011;31062;49.678;24.560;2023-07-20T02:59:18;4.68;;;3.15;;
45326;SDS011;31062;49.678;24.560;2023-07-20T03:02:04;7.60;;;2.80;;
45326;SDS011;31062;49.678;24.560;2023-07-20T03:04:49;4.47;;;2.63;;
45326;SDS011;31062;49.678;24.560;2023-07-20T03:07:35;4.60;;;2.45;;
45326;SDS011;31062;49.678;24.560;2023-07-20T03:10:21;3.30;;;2.80;;
45326;SDS011;31062;49.678;24.560;2023-07-20T03:13:06;7.15;;;2.90;;
45326;SDS011;31062;49.678;24.560;2023-07-20T03:15:55;3.33;;;2.60;;
45326;SDS011;31062;49.678;24.560;2023-07-20T03:18:41;4.57;;;2.72;;
45326;SDS011;31062;49.678;24.560;2023-07-20T03:21:26;4.05;;;2.63;;
45326;SDS011;31062;49.678;24.560;2023-07-20T03:24:12;2.38;;;2.25;;
45326;SDS011;31062;49.678;24.560;2023-07-20T03:26:57;6.47;;;2.47;;
45326;SDS011;31062;49.678;24.560;2023-07-20T03:29:43;4.93;;;2.47;;
45326;SDS011;31062;49.678;24.560;2023-07-20T03:32:29;10.38;;;2.85;;
45326;SDS011;31062;49.678;24.560;2023-07-20T03:35:15;6.72;;;3.03;;
45326;SDS011;31062;49.678;24.560;2023-07-20T03:38:01;7.00;;;2.90;;
45326;SDS011;31062;49.678;24.560;2023-07-20T03:41:04;4.72;;;3.75;;
45326;SDS011;31062;49.678;24.560;2023-07-20T03:43:52;7.05;;;3.72;;
45326;SDS011;31062;49.678;24.560;2023-07-20T03:46:37;7.97;;;3.70;;
45326;SDS011;31062;49.678;24.560;2023-07-20T03:49:23;6.00;;;3.80;;
45326;SDS011;31062;49.678;24.560;2023-07-20T03:52:09;7.47;;;3.72;;
45326;SDS011;31062;49.678;24.560;2023-07-20T03:54:54;12.00;;;3.22;;
45326;SDS011;31062;49.678;24.560;2023-07-20T03:57:39;9.77;;;3.50;;
45326;SDS011;31062;49.678;24.560;2023-07-20T04:00:25;4.75;;;3.50;;
45326;SDS011;31062;49.678;24.560;2023-07-20T04:03:11;9.45;;;3.83;;
45326;SDS011;31062;49.678;24.560;2023-07-20T04:05:57;6.20;;;3.92;;
45326;SDS011;31062;49.678;24.560;2023-07-20T04:08:42;5.95;;;3.40;;
45326;SDS011;31062;49.678;24.560;2023-07-20T04:11:28;5.72;;;3.38;;
45326;SDS011;31062;49.678;24.560;2023-07-20T04:14:13;4.75;;;3.58;;
45326;SDS011;31062;49.678;24.560;2023-07-20T04:16:59;5.35;;;3.45;;
45326;SDS011;31062;49.678;24.560;2023-07-20T04:19:46;3.63;;;3.25;;
45326;SDS011;31062;49.678;24.560;2023-07-20T04:22:31;7.78;;;3.50;;
45326;SDS011;31062;49.678;24.560;2023-07-20T04:25:17;5.57;;;3.33;;
45326;SDS011;31062;49.678;24.560;2023-07-20T04:28:03;7.28;;;3.65;;
45326;SDS011;31062;49.678;24.560;2023-07-20T04:30:49;9.93;;;3.67;;
45326;SDS011;31062;49.678;24.560;2023-07-20T04:33:37;7.15;;;3.63;;
45326;SDS011;31062;49.678;24.560;2023-07-20T04:36:23;4.30;;;3.47;;
45326;SDS011;31062;49.678;24.560;2023-07-20T04:39:10;4.07;;;3.30;;
45326;SDS011;31062;49.678;24.560;2023-07-20T04:42:15;4.97;;;3.50;;
45326;SDS011;31062;49.678;24.560;2023-07-20T04:45:01;8.75;;;3.42;;
45326;SDS011;31062;49.678;24.560;2023-07-20T04:47:47;6.35;;;3.50;;
45326;SDS011;31062;49.678;24.560;2023-07-20T04:50:33;3.80;;;3.47;;
45326;SDS011;31062;49.678;24.560;2023-07-20T04:53:18;6.35;;;3.72;;
45326;SDS011;31062;49.678;24.560;2023-07-20T04:56:04;3.97;;;3.45;;
45326;SDS011;31062;49.678;24.560;2023-07-20T04:58:50;4.15;;;3.75;;
45326;SDS011;31062;49.678;24.560;2023-07-20T05:01:36;3.83;;;3.47;;
45326;SDS011;31062;49.678;24.560;2023-07-20T05:04:22;4.15;;;3.70;;
45326;SDS011;31062;49.678;24.560;2023-07-20T05:07:07;6.40;;;4.20;;
45326;SDS011;31062;49.678;24.560;2023-07-20T05:09:53;5.68;;;3.85;;
45326;SDS011;31062;49.678;24.560;2023-07-20T05:12:38;10.15;;;4.53;;
45326;SDS011;31062;49.678;24.560;2023-07-20T05:15:24;7.43;;;3.70;;
45326;SDS011;31062;49.678;24.560;2023-07-20T05:18:11;8.23;;;4.43;;
45326;SDS011;31062;49.678;24.560;2023-07-20T05:20:57;12.73;;;4.70;;
45326;SDS011;31062;49.678;24.560;2023-07-20T05:23:43;9.13;;;4.85;;
45326;SDS011;31062;49.678;24.560;2023-07-20T05:26:31;12.00;;;5.32;;
45326;SDS011;31062;49.678;24.560;2023-07-20T05:29:16;7.10;;;4.97;;
45326;SDS011;31062;49.678;24.560;2023-07-20T05:32:01;9.40;;;4.85;;
45326;SDS011;31062;49.678;24.560;2023-07-20T05:34:51;9.05;;;5.40;;
45326;SDS011;31062;49.678;24.560;2023-07-20T05:38:01;12.20;;;5.70;;
45326;SDS011;31062;49.678;24.560;2023-07-20T05:40:47;6.45;;;5.50;;
45326;SDS011;31062;49.678;24.560;2023-07-20T05:43:33;11.85;;;5.47;;
45326;SDS011;31062;49.678;24.560;2023-07-20T05:46:19;12.77;;;5.45;;
45326;SDS011;31062;49.678;24.560;2023-07-20T05:49:05;12.27;;;5.72;;
45326;SDS011;31062;49.678;24.560;2023-07-20T05:51:51;9.43;;;6.07;;
45326;SDS011;31062;49.678;24.560;2023-07-20T05:54:43;13.25;;;5.97;;
45326;SDS011;31062;49.678;24.560;2023-07-20T05:57:31;10.48;;;5.03;;
45326;SDS011;31062;49.678;24.560;2023-07-20T06:00:17;14.10;;;5.30;;
45326;SDS011;31062;49.678;24.560;2023-07-20T06:03:05;10.77;;;5.70;;
45326;SDS011;31062;49.678;24.560;2023-07-20T06:05:51;9.65;;;5.13;;
45326;SDS011;31062;49.678;24.560;2023-07-20T06:08:38;9.35;;;5.80;;
45326;SDS011;31062;49.678;24.560;2023-07-20T06:11:23;11.60;;;4.60;;
45326;SDS011;31062;49.678;24.560;2023-07-20T06:14:09;12.30;;;4.93;;
45326;SDS011;31062;49.678;24.560;2023-07-20T06:16:54;8.75;;;4.90;;
45326;SDS011;31062;49.678;24.560;2023-07-20T06:19:40;5.95;;;4.63;;
45326;SDS011;31062;49.678;24.560;2023-07-20T06:22:26;8.88;;;4.50;;
45326;SDS011;31062;49.678;24.560;2023-07-20T06:25:11;11.80;;;5.20;;
45326;SDS011;31062;49.678;24.560;2023-07-20T06:27:56;6.22;;;4.72;;
45326;SDS011;31062;49.678;24.560;2023-07-20T06:30:42;6.57;;;4.00;;
45326;SDS011;31062;49.678;24.560;2023-07-20T06:33:28;5.95;;;4.53;;
45326;SDS011;31062;49.678;24.560;2023-07-20T06:36:18;8.77;;;4.75;;
45326;SDS011;31062;49.678;24.560;2023-07-20T06:39:07;10.02;;;4.40;;
45326;SDS011;31062;49.678;24.560;2023-07-20T06:41:57;7.72;;;4.80;;
45326;SDS011;31062;49.678;24.560;2023-07-20T06:44:43;4.88;;;3.60;;
45326;SDS011;31062;49.678;24.560;2023-07-20T06:47:30;6.63;;;4.47;;
45326;SDS011;31062;49.678;24.560;2023-07-20T06:50:17;7.72;;;5.03;;
45326;SDS011;31062;49.678;24.560;2023-07-20T06:53:03;5.45;;;4.32;;
45326;SDS011;31062;49.678;24.560;2023-07-20T06:55:56;9.45;;;4.40;;
45326;SDS011;31062;49.678;24.560;2023-07-20T06:58:43;7.97;;;5.03;;
45326;SDS011;31062;49.678;24.560;2023-07-20T07:01:29;11.32;;;5.07;;
45326;SDS011;31062;49.678;24.560;2023-07-20T07:04:15;12.27;;;4.97;;
45326;SDS011;31062;49.678;24.560;2023-07-20T07:07:02;6.95;;;4.60;;
45326;SDS011;31062;49.678;24.560;2023-07-20T07:09:50;9.65;;;5.03;;
45326;SDS011;31062;49.678;24.560;2023-07-20T07:12:37;6.30;;;4.47;;
45326;SDS011;31062;49.678;24.560;2023-07-20T07:15:22;4.63;;;3.55;;
45326;SDS011;31062;49.678;24.560;2023-07-20T07:18:07;10.40;;;4.70;;
45326;SDS011;31062;49.678;24.560;2023-07-20T07:20:53;8.82;;;4.32;;
45326;SDS011;31062;49.678;24.560;2023-07-20T07:23:39;8.45;;;4.20;;
45326;SDS011;31062;49.678;24.560;2023-07-20T07:26:25;5.82;;;4.40;;
45326;SDS011;31062;49.678;24.560;2023-07-20T07:29:11;7.32;;;3.47;;
45326;SDS011;31062;49.678;24.560;2023-07-20T07:31:56;7.10;;;4.60;;
45326;SDS011;31062;49.678;24.560;2023-07-20T07:34:43;7.95;;;4.40;;
45326;SDS011;31062;49.678;24.560;2023-07-20T07:37:31;5.10;;;4.30;;
45326;SDS011;31062;49.678;24.560;2023-07-20T07:40:34;4.32;;;3.60;;
45326;SDS011;31062;49.678;24.560;2023-07-20T07:43:20;6.78;;;4.18;;
45326;SDS011;31062;49.678;24.560;2023-07-20T07:46:05;4.93;;;4.18;;
45326;SDS011;31062;49.678;24.560;2023-07-20T07:48:50;4.55;;;4.07;;
45326;SDS011;31062;49.678;24.560;2023-07-20T07:51:36;7.97;;;4.00;;
45326;SDS011;31062;49.678;24.560;2023-07-20T07:54:21;6.32;;;4.40;;
45326;SDS011;31062;49.678;24.560;2023-07-20T07:57:06;5.43;;;4.00;;
45326;SDS011;31062;49.678;24.560;2023-07-20T07:59:52;8.65;;;4.35;;
45326;SDS011;31062;49.678;24.560;2023-07-20T08:02:38;7.13;;;4.07;;
45326;SDS011;31062;49.678;24.560;2023-07-20T08:05:23;4.28;;;3.55;;
45326;SDS011;31062;49.678;24.560;2023-07-20T08:08:09;4.68;;;3.92;;
45326;SDS011;31062;49.678;24.560;2023-07-20T08:10:55;5.30;;;3.50;;
45326;SDS011;31062;49.678;24.560;2023-07-20T08:13:42;6.05;;;3.50;;
45326;SDS011;31062;49.678;24.560;2023-07-20T08:16:27;4.07;;;3.15;;
45326;SDS011;31062;49.678;24.560;2023-07-20T08:19:15;6.43;;;3.83;;
45326;SDS011;31062;49.678;24.560;2023-07-20T08:22:01;7.03;;;4.20;;
45326;SDS011;31062;49.678;24.560;2023-07-20T08:24:46;11.65;;;3.50;;
45326;SDS011;31062;49.678;24.560;2023-07-20T08:27:32;5.97;;;4.05;;
45326;SDS011;31062;49.678;24.560;2023-07-20T08:30:20;4.78;;;3.50;;
45326;SDS011;31062;49.678;24.560;2023-07-20T08:33:09;5.07;;;3.67;;
45326;SDS011;31062;49.678;24.560;2023-07-20T08:35:57;6.20;;;4.15;;
45326;SDS011;31062;49.678;24.560;2023-07-20T08:38:42;8.63;;;4.15;;
45326;SDS011;31062;49.678;24.560;2023-07-20T08:41:28;6.07;;;3.95;;
45326;SDS011;31062;49.678;24.560;2023-07-20T08:44:13;5.50;;;4.00;;
45326;SDS011;31062;49.678;24.560;2023-07-20T08:47:03;5.72;;;4.28;;
45326;SDS011;31062;49.678;24.560;2023-07-20T08:49:50;3.78;;;3.38;;
45326;SDS011;31062;49.678;24.560;2023-07-20T08:52:35;6.80;;;3.60;;
45326;SDS011;31062;49.678;24.560;2023-07-20T08:55:27;5.85;;;3.90;;
45326;SDS011;31062;49.678;24.560;2023-07-20T08:58:12;7.70;;;3.42;;
45326;SDS011;31062;49.678;24.560;2023-07-20T09:01:00;4.30;;;3.90;;
45326;SDS011;31062;49.678;24.560;2023-07-20T09:03:47;7.65;;;4.65;;
45326;SDS011;31062;49.678;24.560;2023-07-20T09:06:34;4.20;;;3.58;;
45326;SDS011;31062;49.678;24.560;2023-07-20T09:09:20;10.63;;;4.00;;
45326;SDS011;31062;49.678;24.560;2023-07-20T09:12:12;5.63;;;4.13;;
45326;SDS011;31062;49.678;24.560;2023-07-20T09:14:58;13.30;;;4.78;;
45326;SDS011;31062;49.678;24.560;2023-07-20T09:17:47;5.15;;;3.90;;
45326;SDS011;31062;49.678;24.560;2023-07-20T09:20:39;4.40;;;3.80;;
45326;SDS011;31062;49.678;24.560;2023-07-20T09:23:34;5.70;;;3.85;;
45326;SDS011;31062;49.678;24.560;2023-07-20T09:26:22;7.70;;;3.88;;
45326;SDS011;31062;49.678;24.560;2023-07-20T09:29:08;5.55;;;3.50;;
45326;SDS011;31062;49.678;24.560;2023-07-20T09:32:04;5.50;;;3.40;;
45326;SDS011;31062;49.678;24.560;2023-07-20T09:34:50;4.05;;;3.55;;
45326;SDS011;31062;49.678;24.560;2023-07-20T09:37:37;6.18;;;4.07;;
45326;SDS011;31062;49.678;24.560;2023-07-20T09:40:22;10.10;;;4.65;;
45326;SDS011;31062;49.678;24.560;2023-07-20T09:43:29;7.00;;;3.67;;
45326;SDS011;31062;49.678;24.560;2023-07-20T09:46:15;6.43;;;3.30;;
45326;SDS011;31062;49.678;24.560;2023-07-20T09:49:22;4.15;;;3.30;;
45326;SDS011;31062;49.678;24.560;2023-07-20T09:52:11;4.35;;;3.63;;
45326;SDS011;31062;49.678;24.560;2023-07-20T09:54:57;5.70;;;3.17;;
45326;SDS011;31062;49.678;24.560;2023-07-20T09:57:42;3.42;;;2.85;;
45326;SDS011;31062;49.678;24.560;2023-07-20T10:00:28;6.55;;;3.05;;
45326;SDS011;31062;49.678;24.560;2023-07-20T10:03:20;4.63;;;3.78;;
45326;SDS011;31062;49.678;24.560;2023-07-20T10:06:06;6.22;;;2.92;;
45326;SDS011;31062;49.678;24.560;2023-07-20T10:08:56;3.70;;;2.58;;
45326;SDS011;31062;49.678;24.560;2023-07-20T10:11:49;6.43;;;3.33;;
45326;SDS011;31062;49.678;24.560;2023-07-20T10:15:01;4.07;;;3.03;;
45326;SDS011;31062;49.678;24.560;2023-07-20T10:18:07;3.80;;;3.27;;
45326;SDS011;31062;49.678;24.560;2023-07-20T10:20:59;5.03;;;3.80;;
45326;SDS011;31062;49.678;24.560;2023-07-20T10:26:35;6.03;;;2.60;;
45326;SDS011;31062;49.678;24.560;2023-07-20T10:29:24;3.50;;;2.67;;
45326;SDS011;31062;49.678;24.560;2023-07-20T10:32:14;3.00;;;2.67;;
45326;SDS011;31062;49.678;24.560;2023-07-20T10:35:00;3.00;;;2.53;;
45326;SDS011;31062;49.678;24.560;2023-07-20T10:37:50;3.22;;;2.22;;
45326;SDS011;31062;49.678;24.560;2023-07-20T10:40:38;3.67;;;2.45;;
45326;SDS011;31062;49.678;24.560;2023-07-20T10:43:24;2.08;;;1.88;;
45326;SDS011;31062;49.678;24.560;2023-07-20T10:46:11;3.97;;;2.33;;
45326;SDS011;31062;49.678;24.560;2023-07-20T10:48:58;2.67;;;2.05;;
45326;SDS011;31062;49.678;24.560;2023-07-20T10:51:47;3.20;;;2.17;;
45326;SDS011;31062;49.678;24.560;2023-07-20T10:54:34;3.13;;;2.30;;
45326;SDS011;31062;49.678;24.560;2023-07-20T10:57:38;2.88;;;2.55;;
45326;SDS011;31062;49.678;24.560;2023-07-20T11:00:26;3.22;;;2.00;;
45326;SDS011;31062;49.678;24.560;2023-07-20T11:03:12;3.80;;;2.05;;
45326;SDS011;31062;49.678;24.560;2023-07-20T11:09:10;3.60;;;2.08;;
45326;SDS011;31062;49.678;24.560;2023-07-20T11:14:59;2.92;;;1.92;;
45326;SDS011;31062;49.678;24.560;2023-07-20T11:17:44;11.00;;;3.08;;
45326;SDS011;31062;49.678;24.560;2023-07-20T11:20:30;3.63;;;2.75;;
45326;SDS011;31062;49.678;24.560;2023-07-20T11:23:15;3.53;;;2.42;;
45326;SDS011;31062;49.678;24.560;2023-07-20T11:26:01;3.95;;;2.53;;
45326;SDS011;31062;49.678;24.560;2023-07-20T11:28:49;2.50;;;2.30;;
45326;SDS011;31062;49.678;24.560;2023-07-20T11:31:37;2.83;;;2.55;;
45326;SDS011;31062;49.678;24.560;2023-07-20T11:34:24;3.65;;;2.92;;
45326;SDS011;31062;49.678;24.560;2023-07-20T11:37:10;3.38;;;2.65;;
45326;SDS011;31062;49.678;24.560;2023-07-20T11:39:56;3.97;;;2.50;;
45326;SDS011;31062;49.678;24.560;2023-07-20T11:42:42;2.40;;;2.20;;
45326;SDS011;31062;49.678;24.560;2023-07-20T11:45:31;2.80;;;2.45;;
45326;SDS011;31062;49.678;24.560;2023-07-20T11:48:18;2.80;;;2.47;;
45326;SDS011;31062;49.678;24.560;2023-07-20T11:51:04;3.45;;;2.85;;
45326;SDS011;31062;49.678;24.560;2023-07-20T11:53:50;3.95;;;2.42;;
45326;SDS011;31062;49.678;24.560;2023-07-20T11:56:35;3.28;;;2.80;;
45326;SDS011;31062;49.678;24.560;2023-07-20T11:59:21;2.58;;;2.28;;
45326;SDS011;31062;49.678;24.560;2023-07-20T12:02:07;2.42;;;2.22;;
45326;SDS011;31062;49.678;24.560;2023-07-20T12:04:54;2.83;;;2.30;;
45326;SDS011;31062;49.678;24.560;2023-07-20T12:07:40;2.90;;;2.13;;
45326;SDS011;31062;49.678;24.560;2023-07-20T12:10:27;2.80;;;2.50;;
45326;SDS011;31062;49.678;24.560;2023-07-20T12:13:13;2.78;;;2.20;;
45326;SDS011;31062;49.678;24.560;2023-07-20T12:16:06;7.85;;;2.60;;
45326;SDS011;31062;49.678;24.560;2023-07-20T12:19:04;2.70;;;2.28;;
45326;SDS011;31062;49.678;24.560;2023-07-20T12:21:57;3.47;;;2.42;;
45326;SDS011;31062;49.678;24.560;2023-07-20T12:24:46;3.15;;;2.22;;
45326;SDS011;31062;49.678;24.560;2023-07-20T12:27:32;2.90;;;2.60;;
45326;SDS011;31062;49.678;24.560;2023-07-20T12:30:18;3.28;;;2.40;;
45326;SDS011;31062;49.678;24.560;2023-07-20T12:33:03;3.90;;;2.28;;
45326;SDS011;31062;49.678;24.560;2023-07-20T12:35:50;3.42;;;2.40;;
45326;SDS011;31062;49.678;24.560;2023-07-20T12:38:37;3.10;;;2.15;;
45326;SDS011;31062;49.678;24.560;2023-07-20T12:41:22;3.72;;;2.30;;
45326;SDS011;31062;49.678;24.560;2023-07-20T12:44:07;3.05;;;2.25;;
45326;SDS011;31062;49.678;24.560;2023-07-20T12:46:53;3.80;;;2.17;;
45326;SDS011;31062;49.678;24.560;2023-07-20T12:49:38;3.88;;;2.33;;
45326;SDS011;31062;49.678;24.560;2023-07-20T12:52:24;2.47;;;2.13;;
45326;SDS011;31062;49.678;24.560;2023-07-20T12:55:10;4.68;;;2.20;;
45326;SDS011;31062;49.678;24.560;2023-07-20T12:57:56;1.80;;;1.70;;
45326;SDS011;31062;49.678;24.560;2023-07-20T13:00:41;2.70;;;1.88;;
45326;SDS011;31062;49.678;24.560;2023-07-20T13:03:27;4.50;;;2.35;;
45326;SDS011;31062;49.678;24.560;2023-07-20T13:06:16;4.70;;;2.35;;
45326;SDS011;31062;49.678;24.560;2023-07-20T13:09:04;3.38;;;2.17;;
45326;SDS011;31062;49.678;24.560;2023-07-20T13:11:50;2.53;;;2.03;;
45326;SDS011;31062;49.678;24.560;2023-07-20T13:14:36;3.05;;;2.38;;
45326;SDS011;31062;49.678;24.560;2023-07-20T13:17:22;2.47;;;2.28;;
45326;SDS011;31062;49.678;24.560;2023-07-20T13:20:08;2.47;;;2.17;;
45326;SDS011;31062;49.678;24.560;2023-07-20T13:22:55;2.70;;;2.20;;
45326;SDS011;31062;49.678;24.560;2023-07-20T13:25:41;2.42;;;2.22;;
45326;SDS011;31062;49.678;24.560;2023-07-20T13:28:27;2.83;;;2.47;;
45326;SDS011;31062;49.678;24.560;2023-07-20T13:31:14;3.03;;;2.30;;
45326;SDS011;31062;49.678;24.560;2023-07-20T13:34:02;2.65;;;1.98;;
45326;SDS011;31062;49.678;24.560;2023-07-20T13:36:48;3.35;;;2.50;;
45326;SDS011;31062;49.678;24.560;2023-07-20T13:39:34;2.42;;;2.13;;
45326;SDS011;31062;49.678;24.560;2023-07-20T13:42:20;3.35;;;3.05;;
45326;SDS011;31062;49.678;24.560;2023-07-20T13:45:06;2.63;;;2.40;;
45326;SDS011;31062;49.678;24.560;2023-07-20T13:47:52;2.67;;;2.30;;
45326;SDS011;31062;49.678;24.560;2023-07-20T13:50:38;2.85;;;2.30;;
45326;SDS011;31062;49.678;24.560;2023-07-20T13:53:45;5.32;;;2.70;;
45326;SDS011;31062;49.678;24.560;2023-07-20T13:56:34;7.25;;;2.30;;
45326;SDS011;31062;49.678;24.560;2023-07-20T13:59:20;3.03;;;2.63;;
45326;SDS011;31062;49.678;24.560;2023-07-20T14:02:05;8.38;;;2.88;;
45326;SDS011;31062;49.678;24.560;2023-07-20T14:04:54;2.75;;;2.28;;
45326;SDS011;31062;49.678;24.560;2023-07-20T14:07:44;2.38;;;2.17;;
45326;SDS011;31062;49.678;24.560;2023-07-20T14:10:29;3.55;;;2.35;;
45326;SDS011;31062;49.678;24.560;2023-07-20T14:13:15;7.28;;;2.55;;
45326;SDS011;31062;49.678;24.560;2023-07-20T14:16:00;3.45;;;2.28;;
45326;SDS011;31062;49.678;24.560;2023-07-20T14:18:46;3.42;;;2.50;;
45326;SDS011;31062;49.678;24.560;2023-07-20T14:21:34;2.50;;;2.30;;
45326;SDS011;31062;49.678;24.560;2023-07-20T14:24:19;5.72;;;2.22;;
45326;SDS011;31062;49.678;24.560;2023-07-20T14:27:05;2.85;;;2.25;;
45326;SDS011;31062;49.678;24.560;2023-07-20T14:29:51;3.10;;;2.05;;
45326;SDS011;31062;49.678;24.560;2023-07-20T14:32:36;4.82;;;2.17;;
45326;SDS011;31062;49.678;24.560;2023-07-20T14:35:23;4.95;;;2.15;;
45326;SDS011;31062;49.678;24.560;2023-07-20T14:38:10;5.68;;;2.20;;
45326;SDS011;31062;49.678;24.560;2023-07-20T14:40:56;3.20;;;2.50;;
45326;SDS011;31062;49.678;24.560;2023-07-20T14:43:41;3.08;;;2.55;;
45326;SDS011;31062;49.678;24.560;2023-07-20T14:46:27;4.38;;;2.03;;
45326;SDS011;31062;49.678;24.560;2023-07-20T14:49:13;4.53;;;2.30;;
45326;SDS011;31062;49.678;24.560;2023-07-20T14:51:59;3.63;;;2.65;;
45326;SDS011;31062;49.678;24.560;2023-07-20T14:54:46;4.45;;;2.78;;
45326;SDS011;31062;49.678;24.560;2023-07-20T14:57:31;2.65;;;2.15;;
45326;SDS011;31062;49.678;24.560;2023-07-20T15:00:17;3.47;;;2.40;;
45326;SDS011;31062;49.678;24.560;2023-07-20T15:03:03;2.47;;;2.20;;
45326;SDS011;31062;49.678;24.560;2023-07-20T15:05:48;2.10;;;1.80;;
45326;SDS011;31062;49.678;24.560;2023-07-20T15:08:34;2.15;;;2.00;;
45326;SDS011;31062;49.678;24.560;2023-07-20T15:11:20;3.90;;;2.28;;
45326;SDS011;31062;49.678;24.560;2023-07-20T15:14:05;3.47;;;1.65;;
45326;SDS011;31062;49.678;24.560;2023-07-20T15:16:51;3.83;;;2.22;;
45326;SDS011;31062;49.678;24.560;2023-07-20T15:19:36;8.63;;;2.30;;
45326;SDS011;31062;49.678;24.560;2023-07-20T15:22:22;3.17;;;1.77;;
45326;SDS011;31062;49.678;24.560;2023-07-20T15:25:09;3.97;;;1.90;;
45326;SDS011;31062;49.678;24.560;2023-07-20T15:27:58;2.10;;;1.90;;
45326;SDS011;31062;49.678;24.560;2023-07-20T15:30:43;2.92;;;1.80;;
45326;SDS011;31062;49.678;24.560;2023-07-20T15:33:32;2.17;;;1.77;;
45326;SDS011;31062;49.678;24.560;2023-07-20T15:36:17;3.88;;;1.70;;
45326;SDS011;31062;49.678;24.560;2023-07-20T15:39:03;2.50;;;1.70;;
45326;SDS011;31062;49.678;24.560;2023-07-20T15:41:50;2.78;;;1.70;;
45326;SDS011;31062;49.678;24.560;2023-07-20T15:44:35;2.53;;;2.20;;
45326;SDS011;31062;49.678;24.560;2023-07-20T15:47:21;1.80;;;1.67;;
45326;SDS011;31062;49.678;24.560;2023-07-20T15:50:07;2.22;;;2.03;;
45326;SDS011;31062;49.678;24.560;2023-07-20T15:52:53;3.15;;;2.53;;
45326;SDS011;31062;49.678;24.560;2023-07-20T15:55:39;4.80;;;1.90;;
45326;SDS011;31062;49.678;24.560;2023-07-20T15:58:26;2.30;;;2.08;;
45326;SDS011;31062;49.678;24.560;2023-07-20T16:01:11;1.90;;;1.70;;
45326;SDS011;31062;49.678;24.560;2023-07-20T16:03:58;2.05;;;1.63;;
45326;SDS011;31062;49.678;24.560;2023-07-20T16:06:44;3.83;;;1.70;;
45326;SDS011;31062;49.678;24.560;2023-07-20T16:09:29;5.78;;;1.90;;
45326;SDS011;31062;49.678;24.560;2023-07-20T16:12:15;2.20;;;1.75;;
45326;SDS011;31062;49.678;24.560;2023-07-20T16:15:01;1.80;;;1.70;;
45326;SDS011;31062;49.678;24.560;2023-07-20T16:17:50;2.25;;;1.83;;
45326;SDS011;31062;49.678;24.560;2023-07-20T16:20:36;2.45;;;1.70;;
45326;SDS011;31062;49.678;24.560;2023-07-20T16:23:22;2.55;;;1.42;;
45326;SDS011;31062;49.678;24.560;2023-07-20T16:26:07;2.63;;;1.58;;
45326;SDS011;31062;49.678;24.560;2023-07-20T16:28:53;2.83;;;1.63;;
45326;SDS011;31062;49.678;24.560;2023-07-20T16:31:58;1.88;;;1.67;;
45326;SDS011;31062;49.678;24.560;2023-07-20T16:34:47;2.13;;;1.63;;
45326;SDS011;31062;49.678;24.560;2023-07-20T16:37:33;2.80;;;1.40;;
45326;SDS011;31062;49.678;24.560;2023-07-20T16:40:19;3.95;;;2.20;;
45326;SDS011;31062;49.678;24.560;2023-07-20T16:43:08;7.15;;;2.03;;
45326;SDS011;31062;49.678;24.560;2023-07-20T16:46:00;2.03;;;1.60;;
45326;SDS011;31062;49.678;24.560;2023-07-20T16:49:06;4.15;;;2.08;;
45326;SDS011;31062;49.678;24.560;2023-07-20T16:51:54;4.32;;;1.35;;